createdAt,value
2019-01-08T00:02:03.772Z,96.60
2019-01-08T00:06:11.893Z,96.60
2019-01-08T00:10:19.992Z,96.60
2019-01-08T00:14:28.105Z,96.60
2019-01-08T00:18:36.212Z,96.60
2019-01-08T00:22:44.309Z,96.60
2019-01-08T00:26:52.425Z,96.80
2019-01-08T00:31:00.537Z,96.80
2019-01-08T00:35:08.648Z,96.80
2019-01-08T00:39:16.762Z,96.90
2019-01-08T00:43:24.866Z,96.90
2019-01-08T00:47:33.089Z,97.00
2019-01-08T00:51:41.193Z,97.00
2019-01-08T00:55:49.310Z,97.40
2019-01-08T00:59:57.414Z,96.70
2019-01-08T01:04:05.521Z,96.50
2019-01-08T01:08:13.633Z,95.70
2019-01-08T01:12:21.750Z,95.70
2019-01-08T01:16:29.895Z,95.60
2019-01-08T01:20:38.005Z,95.50
2019-01-08T01:24:46.112Z,95.50
2019-01-08T01:28:59.886Z,95.60
2019-01-08T01:33:02.345Z,95.50
2019-01-08T01:37:10.453Z,95.50
2019-01-08T01:41:18.568Z,95.30
2019-01-08T01:45:26.676Z,94.70
2019-01-08T01:49:34.812Z,94.50
2019-01-08T01:53:42.938Z,94.30
2019-01-08T01:57:51.053Z,94.20
2019-01-08T02:01:59.169Z,94.00
2019-01-08T02:06:07.266Z,93.80
2019-01-08T02:10:15.395Z,93.60
2019-01-08T02:14:23.512Z,93.50
2019-01-08T02:18:31.617Z,93.40
2019-01-08T02:22:39.753Z,92.50
2019-01-08T02:26:47.942Z,92.10
2019-01-08T02:30:56.082Z,91.20
2019-01-08T02:35:04.279Z,91.30
2019-01-08T02:39:12.443Z,91.50
2019-01-08T02:43:20.595Z,91.70
2019-01-08T02:47:28.739Z,91.90
2019-01-08T02:51:36.889Z,92.10
2019-01-08T02:55:45.025Z,92.40
2019-01-08T02:59:53.181Z,92.40
2019-01-08T03:04:01.342Z,92.50
2019-01-08T03:08:09.486Z,92.00
2019-01-08T03:12:17.631Z,92.20
2019-01-08T03:16:25.798Z,92.00
2019-01-08T03:20:33.954Z,92.10
2019-01-08T03:24:42.102Z,92.00
2019-01-08T03:28:50.259Z,91.90
2019-01-08T03:32:58.406Z,91.90
2019-01-08T03:37:06.577Z,91.90
2019-01-08T03:41:14.780Z,91.40
2019-01-08T03:45:22.925Z,91.00
2019-01-08T03:49:31.078Z,90.80
2019-01-08T03:53:39.228Z,90.80
2019-01-08T03:57:47.373Z,90.90
2019-01-08T04:01:55.517Z,91.00
2019-01-08T04:06:03.672Z,90.60
2019-01-08T04:10:11.826Z,88.80
2019-01-08T04:14:19.954Z,88.30
2019-01-08T04:18:28.106Z,88.70
2019-01-08T04:22:36.257Z,88.40
2019-01-08T04:26:44.422Z,87.70
2019-01-08T04:30:52.583Z,88.30
2019-01-08T04:35:00.721Z,88.40
2019-01-08T04:39:08.870Z,89.30
2019-01-08T04:43:17.030Z,89.40
2019-01-08T04:47:25.174Z,88.70
2019-01-08T04:51:33.320Z,88.60
2019-01-08T04:55:41.626Z,88.50
2019-01-08T04:59:49.758Z,87.90
2019-01-08T05:03:57.916Z,87.80
2019-01-08T05:08:06.053Z,87.20
2019-01-08T05:12:14.195Z,87.50
2019-01-08T05:16:22.317Z,86.70
2019-01-08T05:20:30.450Z,86.50
2019-01-08T05:24:38.585Z,86.20
2019-01-08T05:28:46.734Z,86.40
2019-01-08T05:32:54.886Z,85.30
2019-01-08T05:37:03.027Z,85.40
2019-01-08T05:41:11.155Z,83.70
2019-01-08T05:45:19.298Z,84.50
2019-01-08T05:49:27.460Z,84.70
2019-01-08T05:53:35.610Z,85.40
2019-01-08T05:57:43.749Z,85.30
2019-01-08T06:01:51.898Z,85.20
2019-01-08T06:06:00.044Z,84.50
2019-01-08T06:10:09.286Z,84.60
2019-01-08T06:14:17.486Z,84.00
2019-01-08T06:18:25.626Z,84.30
2019-01-08T06:22:33.754Z,84.60
2019-01-08T06:26:41.886Z,84.70
2019-01-08T06:30:50.045Z,84.70
2019-01-08T06:34:58.173Z,84.20
2019-01-08T06:39:06.938Z,83.20
2019-01-08T06:43:15.106Z,83.40
2019-01-08T06:47:23.246Z,83.20
2019-01-08T06:51:31.386Z,83.40
2019-01-08T06:55:39.521Z,83.80
2019-01-08T06:59:47.661Z,83.10
2019-01-08T07:03:55.858Z,83.30
2019-01-08T07:08:04.011Z,83.30
2019-01-08T07:12:12.167Z,83.20
2019-01-08T07:16:20.330Z,83.00
2019-01-08T07:20:28.486Z,83.80
2019-01-08T07:24:36.833Z,84.20
2019-01-08T07:28:44.961Z,84.20
2019-01-08T07:32:53.096Z,84.40
2019-01-08T07:37:01.257Z,84.10
2019-01-08T07:41:09.390Z,82.70
2019-01-08T07:45:17.521Z,83.60
2019-01-08T07:49:25.738Z,84.10
2019-01-08T07:53:33.890Z,83.90
2019-01-08T07:57:42.027Z,83.70
2019-01-08T08:01:50.175Z,83.00
2019-01-08T08:05:58.362Z,83.80
2019-01-08T08:10:07.693Z,84.10
2019-01-08T08:14:15.817Z,84.30
2019-01-08T08:18:23.961Z,84.70
2019-01-08T08:22:32.108Z,84.50
2019-01-08T08:26:40.249Z,85.10
2019-01-08T08:30:48.409Z,84.60
2019-01-08T08:34:56.554Z,85.00
2019-01-08T08:39:05.738Z,84.30
2019-01-08T08:43:13.877Z,86.00
2019-01-08T08:47:22.009Z,87.00
2019-01-08T08:51:30.166Z,87.60
2019-01-08T08:55:40.045Z,88.20
2019-01-08T08:59:46.446Z,89.00
2019-01-08T09:03:54.591Z,87.90
2019-01-08T09:08:02.793Z,87.60
2019-01-08T09:12:10.930Z,87.60
2019-01-08T09:16:19.141Z,87.70
2019-01-08T09:20:27.291Z,88.00
2019-01-08T09:24:35.446Z,87.40
2019-01-08T09:28:43.602Z,86.90
2019-01-08T09:32:51.737Z,86.80
2019-01-08T09:36:59.874Z,85.90
2019-01-08T09:41:08.014Z,86.10
2019-01-08T09:45:16.155Z,85.20
2019-01-08T09:49:26.014Z,85.70
2019-01-08T09:53:32.441Z,85.60
2019-01-08T09:57:40.577Z,85.50
2019-01-08T10:01:48.706Z,84.70
2019-01-08T10:05:56.841Z,85.10
2019-01-08T10:10:05.295Z,85.60
2019-01-08T10:14:13.427Z,86.20
2019-01-08T10:18:21.566Z,87.40
2019-01-08T10:22:29.687Z,87.70
2019-01-08T10:26:37.820Z,87.50
2019-01-08T10:30:45.959Z,88.20
2019-01-08T10:34:54.093Z,88.70
2019-01-08T10:39:02.227Z,88.40
2019-01-08T10:51:15.979Z,89.50
2019-01-08T10:55:24.159Z,90.60
2019-01-08T10:59:32.331Z,90.70
2019-01-08T11:03:40.528Z,90.50
2019-01-08T11:07:48.732Z,90.40
2019-01-08T11:11:57.075Z,90.30
2019-01-08T11:16:05.253Z,90.30
2019-01-08T11:20:13.444Z,89.80
2019-01-08T11:24:21.650Z,88.90
2019-01-08T11:28:29.829Z,89.20
2019-01-08T11:32:38.008Z,89.40
2019-01-08T11:36:46.207Z,89.70
2019-01-08T11:40:54.399Z,90.00
2019-01-08T11:45:02.603Z,90.10
2019-01-08T11:49:10.832Z,89.80
2019-01-08T11:53:19.028Z,89.40
2019-01-08T11:57:27.207Z,88.80
2019-01-08T12:01:35.407Z,88.20
2019-01-08T12:05:43.597Z,88.60
2019-01-08T12:09:51.769Z,88.40
2019-01-08T12:14:00.244Z,88.30
2019-01-08T12:18:08.452Z,87.50
2019-01-08T12:22:16.664Z,88.30
2019-01-08T12:26:24.879Z,86.80
2019-01-08T12:30:33.088Z,86.70
2019-01-08T12:34:41.298Z,87.10
2019-01-08T12:38:49.495Z,87.20
2019-01-08T12:42:57.682Z,87.90
2019-01-08T12:47:05.854Z,88.40
2019-01-08T12:51:14.042Z,88.70
2019-01-08T12:55:22.257Z,89.00
2019-01-08T12:59:30.496Z,90.10
2019-01-08T13:03:38.689Z,89.40
2019-01-08T13:07:46.867Z,89.90
2019-01-08T13:11:55.046Z,88.20
2019-01-08T13:16:03.237Z,85.90
2019-01-08T13:20:11.432Z,84.90
2019-01-08T13:24:19.660Z,83.60
2019-01-08T13:28:27.851Z,83.70
2019-01-08T13:32:36.038Z,84.00
2019-01-08T13:36:44.327Z,83.80
2019-01-08T13:40:52.508Z,84.80
2019-01-08T13:45:00.717Z,84.40
2019-01-08T13:49:08.890Z,83.40
2019-01-08T13:53:17.091Z,83.80
2019-01-08T13:57:25.296Z,84.30
2019-01-08T14:01:33.497Z,83.80
2019-01-08T14:05:41.715Z,83.70
2019-01-08T14:09:49.888Z,83.90
2019-01-08T14:13:58.070Z,84.20
2019-01-08T14:18:06.246Z,85.30
2019-01-08T14:22:14.473Z,85.90
2019-01-08T14:26:22.660Z,86.80
2019-01-08T14:30:30.839Z,87.50
2019-01-08T14:34:39.015Z,88.20
2019-01-08T14:38:47.204Z,88.40
2019-01-08T14:42:55.390Z,88.50
2019-01-08T14:47:03.610Z,87.40
2019-01-08T14:51:11.790Z,87.40
2019-01-08T14:55:19.970Z,87.60
2019-01-08T14:59:28.160Z,88.80
2019-01-08T15:03:36.342Z,89.50
2019-01-08T15:07:44.507Z,89.50
2019-01-08T15:11:52.699Z,89.20
2019-01-08T15:16:00.895Z,89.40
2019-01-08T15:20:09.062Z,89.70
2019-01-08T15:24:17.259Z,90.50
2019-01-08T15:28:25.429Z,90.00
2019-01-08T15:32:33.611Z,89.90
2019-01-08T15:36:41.789Z,89.70
2019-01-08T15:40:49.967Z,89.60
2019-01-08T15:44:58.166Z,90.30
2019-01-08T15:49:06.360Z,90.10
2019-01-08T15:53:14.592Z,90.10
2019-01-08T15:57:22.753Z,90.20
2019-01-08T16:01:30.941Z,90.10
2019-01-08T16:05:39.131Z,90.00
2019-01-08T16:09:48.847Z,89.70
2019-01-08T16:13:55.548Z,89.90
2019-01-08T16:18:03.735Z,90.20
2019-01-08T16:22:11.924Z,89.50
2019-01-08T16:26:20.114Z,89.00
2019-01-08T16:30:28.307Z,88.10
2019-01-08T16:34:36.502Z,86.80
2019-01-08T16:38:44.702Z,87.20
2019-01-08T16:42:52.887Z,87.60
2019-01-08T16:47:01.070Z,88.20
2019-01-08T16:51:09.246Z,88.30
2019-01-08T16:55:17.389Z,88.80
2019-01-08T16:59:25.551Z,89.20
2019-01-08T17:03:33.703Z,89.60
2019-01-08T17:07:41.849Z,90.00
2019-01-08T17:11:49.992Z,90.20
2019-01-08T17:15:58.142Z,90.20
2019-01-08T17:20:06.905Z,90.20
2019-01-08T17:24:15.045Z,89.70
2019-01-08T17:28:23.214Z,90.00
2019-01-08T17:32:31.360Z,90.10
2019-01-08T17:36:39.517Z,90.00
2019-01-08T17:40:47.754Z,89.70
2019-01-08T17:44:55.822Z,89.80
2019-01-08T17:49:03.951Z,89.90
2019-01-08T17:53:12.117Z,90.00
2019-01-08T17:57:20.257Z,89.10
2019-01-08T18:01:31.750Z,88.80
2019-01-08T18:05:39.886Z,88.60
2019-01-08T18:09:48.047Z,88.80
2019-01-08T18:13:56.197Z,88.70
2019-01-08T18:18:04.358Z,88.60
2019-01-08T18:22:12.528Z,88.20
2019-01-08T18:26:20.670Z,88.50
2019-01-08T18:30:28.814Z,88.10
2019-01-08T18:34:36.993Z,87.90
2019-01-08T18:38:45.130Z,87.70
2019-01-08T18:42:53.285Z,87.20
2019-01-08T18:47:01.438Z,86.00
2019-01-08T18:51:09.589Z,86.60
2019-01-08T18:55:17.747Z,86.20
2019-01-08T18:59:25.902Z,85.40
2019-01-08T19:03:34.071Z,85.60
2019-01-08T19:07:42.236Z,85.80
2019-01-08T19:11:50.625Z,85.00
2019-01-08T19:15:58.761Z,84.10
2019-01-08T19:20:07.094Z,84.10
2019-01-08T19:24:15.258Z,82.70
2019-01-08T19:28:23.406Z,83.50
2019-01-08T19:32:31.554Z,84.50
2019-01-08T19:36:39.706Z,83.90
2019-01-08T19:40:47.850Z,84.60
2019-01-08T19:44:55.993Z,85.60
2019-01-08T19:49:04.156Z,86.00
2019-01-08T19:53:12.318Z,86.50
2019-01-08T19:57:20.449Z,87.40
2019-01-08T20:01:28.607Z,87.70
2019-01-08T20:05:36.737Z,87.60
2019-01-08T20:09:44.887Z,87.20
2019-01-08T20:13:53.048Z,87.60
2019-01-08T20:18:01.183Z,87.30
2019-01-08T20:22:10.628Z,87.20
2019-01-08T20:26:17.462Z,87.50
2019-01-08T20:30:25.621Z,86.90
2019-01-08T20:34:33.769Z,86.90
2019-01-08T20:38:41.909Z,87.20
2019-01-08T20:42:50.082Z,87.20
2019-01-08T20:46:58.214Z,87.30
2019-01-08T20:51:06.360Z,87.80
2019-01-08T20:55:14.521Z,87.30
2019-01-08T20:59:22.653Z,86.00
2019-01-08T21:03:30.797Z,86.70
2019-01-08T21:07:38.950Z,87.10
2019-01-08T21:11:47.089Z,86.80
2019-01-08T21:15:55.238Z,87.00
2019-01-08T21:20:03.384Z,87.20
2019-01-08T21:24:11.635Z,86.40
2019-01-08T21:28:19.770Z,85.70
2019-01-08T21:32:27.913Z,86.30
2019-01-08T21:36:36.065Z,87.10
2019-01-08T21:40:44.222Z,86.40
2019-01-08T21:44:52.365Z,86.80
2019-01-08T21:49:00.513Z,86.30
2019-01-08T21:53:08.678Z,86.00
2019-01-08T21:57:16.872Z,85.50
2019-01-08T22:01:25.034Z,85.60
2019-01-08T22:05:33.197Z,85.60
2019-01-08T22:09:41.341Z,85.60
2019-01-08T22:13:49.524Z,86.40
2019-01-08T22:17:57.671Z,87.10
2019-01-08T22:22:05.816Z,87.70
2019-01-08T22:26:13.952Z,87.50
2019-01-08T22:30:22.118Z,88.20
2019-01-08T22:34:30.264Z,88.80
2019-01-08T22:38:38.411Z,89.10
2019-01-08T22:42:46.579Z,89.70
2019-01-08T22:46:55.437Z,90.00
2019-01-08T22:51:02.878Z,89.80
2019-01-08T22:55:11.009Z,89.90
2019-01-08T22:59:19.225Z,89.50
2019-01-08T23:03:27.390Z,89.40
2019-01-08T23:07:35.547Z,89.70
2019-01-08T23:11:43.698Z,89.70
2019-01-08T23:15:51.869Z,89.50
2019-01-08T23:20:00.021Z,89.40
2019-01-08T23:24:08.174Z,90.00
2019-01-08T23:28:16.353Z,89.60
2019-01-08T23:32:24.582Z,89.20
2019-01-08T23:36:32.675Z,88.80
2019-01-08T23:40:40.842Z,88.70
2019-01-08T23:44:48.995Z,89.30
2019-01-08T23:48:57.210Z,89.60
2019-01-08T23:53:06.685Z,89.60
2019-01-08T23:57:15.207Z,90.00
